Time;durP1;ratioP1;P1;durP2;ratioP2;P2;SDS_P1;SDS_P2;PMS_P1;PMS_P2;Temp;Humidity;BMP_temperature;BMP_pressure;BME280_temperature;BME280_humidity;BME280_pressure;Samples;Min_cycle;Max_cycle;Signal;HPM_P1;HPM_P2
2022/01/14 00:02:04;;;;;;;32.93;13.07;;;3.50;99.90;;;;;;5058628;28;20257;-59
2022/01/14 00:04:31;;;;;;;32.67;12.27;;;3.50;99.90;;;;;;5057844;28;20234;-59
2022/01/14 00:06:58;;;;;;;38.33;12.60;;;3.50;99.90;;;;;;5057965;28;20226;-59
2022/01/14 00:09:25;;;;;;;31.20;12.43;;;3.40;99.90;;;;;;5044472;28;20237;-59
2022/01/14 00:11:57;;;;;;;34.97;13.10;;;3.30;99.90;;;;;;5060025;28;20198;-59
2022/01/14 00:14:44;;;;;;;32.43;12.53;;;3.40;99.90;;;;;;5073566;28;20211;-58
2022/01/14 00:17:16;;;;;;;34.00;12.57;;;3.20;99.90;;;;;;5060478;28;20287;-58
2022/01/14 00:19:43;;;;;;;37.77;13.23;;;3.20;99.90;;;;;;5058762;28;20207;-59
2022/01/14 00:22:16;;;;;;;38.70;12.67;;;3.20;99.90;;;;;;5058837;28;20200;-59
2022/01/14 00:33:05;;;;;;;33.47;12.43;;;3.30;99.90;;;;;;5058468;28;20208;-59
2022/01/14 00:35:35;;;;;;;29.97;12.30;;;3.30;99.90;;;;;;5058650;28;20276;-54
2022/01/14 00:38:03;;;;;;;33.40;12.60;;;3.20;99.90;;;;;;5060081;28;20259;-57
2022/01/14 00:40:30;;;;;;;32.33;13.37;;;3.30;99.90;;;;;;5059515;28;20197;-59
2022/01/14 00:42:57;;;;;;;39.73;14.13;;;3.20;99.90;;;;;;5056884;28;20372;-58
2022/01/14 00:45:24;;;;;;;32.67;13.47;;;3.30;99.90;;;;;;5059064;28;20201;-59
2022/01/14 00:47:51;;;;;;;35.00;11.93;;;3.30;99.90;;;;;;5058860;28;20309;-58
2022/01/14 00:50:19;;;;;;;34.10;13.63;;;3.30;99.90;;;;;;5057357;28;20326;-57
2022/01/14 00:52:47;;;;;;;35.00;13.43;;;3.30;99.90;;;;;;5059629;28;20238;-58
2022/01/14 00:55:18;;;;;;;29.27;12.37;;;3.20;99.90;;;;;;5056642;28;20243;-58
2022/01/14 01:00:38;;;;;;;30.10;12.77;;;3.20;99.90;;;;;;5045140;28;20203;-60
2022/01/14 01:03:05;;;;;;;31.47;12.13;;;3.10;99.90;;;;;;5059409;28;20213;-59
2022/01/14 01:05:32;;;;;;;30.20;12.10;;;3.20;99.90;;;;;;5057327;28;20259;-57
2022/01/14 01:08:10;;;;;;;29.23;12.20;;;3.10;99.90;;;;;;5058489;28;20222;-59
2022/01/14 01:10:47;;;;;;;26.23;11.77;;;3.10;99.90;;;;;;5058629;28;20279;-59
2022/01/14 01:13:29;;;;;;;34.93;13.07;;;3.10;99.90;;;;;;5056466;28;20317;-59
2022/01/14 01:15:56;;;;;;;31.07;13.90;;;3.10;99.90;;;;;;5056558;28;20214;-59
2022/01/14 01:18:23;;;;;;;32.90;11.37;;;3.10;99.90;;;;;;5058497;28;20240;-58
2022/01/14 01:20:51;;;;;;;32.30;12.57;;;3.10;99.90;;;;;;5063413;28;20268;-57
2022/01/14 01:23:19;;;;;;;29.13;10.97;;;3.10;99.90;;;;;;5058049;28;20207;-63
2022/01/14 01:25:56;;;;;;;32.63;12.33;;;3.20;99.90;;;;;;5057796;28;20245;-59
2022/01/14 01:28:24;;;;;;;32.47;12.63;;;3.20;99.90;;;;;;5058866;28;20582;-59
2022/01/14 01:31:04;;;;;;;30.17;12.30;;;3.20;99.90;;;;;;5062774;28;20318;-59
2022/01/14 01:33:31;;;;;;;27.87;12.93;;;3.20;99.90;;;;;;5061396;28;20217;-59
2022/01/14 01:35:58;;;;;;;32.97;12.83;;;3.20;99.90;;;;;;5060169;28;20226;-57
2022/01/14 01:38:25;;;;;;;34.27;12.37;;;3.10;99.90;;;;;;5062479;28;20295;-59
2022/01/14 01:40:52;;;;;;;39.70;12.93;;;3.20;99.90;;;;;;5060363;28;20238;-59
2022/01/14 01:43:24;;;;;;;30.23;12.17;;;3.10;99.90;;;;;;5059634;28;20231;-59
2022/01/14 01:45:54;;;;;;;33.83;13.17;;;3.10;99.90;;;;;;5061810;28;20652;-59
2022/01/14 01:48:21;;;;;;;39.00;13.47;;;3.10;99.90;;;;;;5061366;28;20211;-59
2022/01/14 01:50:48;;;;;;;39.37;13.20;;;3.10;99.90;;;;;;5061999;28;20289;-57
2022/01/14 01:53:14;;;;;;;32.03;12.57;;;3.10;99.90;;;;;;5061477;28;20873;-58
2022/01/14 01:55:41;;;;;;;32.57;11.57;;;3.10;99.90;;;;;;5060147;28;20200;-58
2022/01/14 01:58:08;;;;;;;33.97;12.23;;;3.10;99.90;;;;;;5059407;28;20683;-58
2022/01/14 02:00:35;;;;;;;33.90;12.97;;;3.10;99.90;;;;;;5061083;28;20239;-59
2022/01/14 02:03:03;;;;;;;32.77;12.97;;;3.20;99.90;;;;;;5057452;28;20207;-60
2022/01/14 02:05:30;;;;;;;33.80;12.33;;;3.10;99.90;;;;;;5061090;28;20205;-55
2022/01/14 02:07:57;;;;;;;28.83;12.97;;;3.20;99.90;;;;;;5060326;28;20222;-59
2022/01/14 02:10:25;;;;;;;33.50;11.77;;;3.20;99.90;;;;;;5061604;28;20227;-59
2022/01/14 02:12:54;;;;;;;29.07;11.87;;;3.20;99.90;;;;;;5055929;28;20263;-58
2022/01/14 02:23:25;;;;;;;28.60;11.17;;;3.20;99.90;;;;;;5062139;28;20225;-59
2022/01/14 02:25:52;;;;;;;29.63;11.83;;;3.20;99.90;;;;;;5060152;28;20238;-59
2022/01/14 02:28:20;;;;;;;27.23;12.27;;;3.10;99.90;;;;;;5059765;28;20223;-59
2022/01/14 02:30:49;;;;;;;31.20;12.57;;;3.10;99.90;;;;;;5062391;28;20206;-59
2022/01/14 02:33:18;;;;;;;37.60;14.03;;;3.10;99.90;;;;;;5059317;28;20207;-58
2022/01/14 02:35:47;;;;;;;28.37;12.13;;;3.10;99.90;;;;;;5058467;28;20226;-57
2022/01/14 02:38:15;;;;;;;25.83;11.87;;;3.10;99.90;;;;;;5060183;28;20202;-56
2022/01/14 02:40:44;;;;;;;24.67;12.00;;;3.20;99.90;;;;;;5076177;28;20211;-59
2022/01/14 02:43:13;;;;;;;38.37;12.20;;;3.20;99.90;;;;;;5060688;28;20277;-58
2022/01/14 02:45:53;;;;;;;29.17;12.53;;;3.30;99.90;;;;;;5060163;28;20215;-59
2022/01/14 02:48:24;;;;;;;29.03;11.93;;;3.20;99.90;;;;;;5064755;28;20677;-58
2022/01/14 02:51:08;;;;;;;41.43;12.93;;;3.20;99.90;;;;;;5058699;28;20210;-58
2022/01/14 02:56:19;;;;;;;32.63;12.20;;;3.50;99.90;;;;;;5060937;28;20211;-57
2022/01/14 02:58:48;;;;;;;25.97;10.90;;;3.20;99.90;;;;;;5060486;28;20228;-58
2022/01/14 03:01:20;;;;;;;31.10;12.83;;;3.20;99.90;;;;;;5059407;28;20625;-58
2022/01/14 03:03:48;;;;;;;31.97;12.83;;;3.20;99.90;;;;;;5075110;28;20207;-58
2022/01/14 03:06:15;;;;;;;27.67;12.00;;;3.30;99.90;;;;;;5059804;28;20659;-58
2022/01/14 03:08:43;;;;;;;28.70;10.97;;;3.30;99.90;;;;;;5059769;28;20606;-59
2022/01/14 03:11:17;;;;;;;32.87;11.43;;;3.20;99.90;;;;;;5059278;28;20554;-59
2022/01/14 03:13:44;;;;;;;28.37;11.53;;;3.20;99.90;;;;;;5060340;28;20228;-59
2022/01/14 03:16:11;;;;;;;42.03;12.73;;;3.10;99.90;;;;;;5058436;28;20214;-57
2022/01/14 03:18:45;;;;;;;22.97;11.60;;;3.20;99.90;;;;;;5060625;28;20198;-56
2022/01/14 03:21:14;;;;;;;34.07;12.53;;;3.20;99.90;;;;;;5059360;28;20345;-58
2022/01/14 03:23:49;;;;;;;33.43;11.73;;;3.30;99.90;;;;;;5057218;28;20203;-58
2022/01/14 03:26:18;;;;;;;39.37;11.67;;;3.20;99.90;;;;;;5060606;28;20507;-56
2022/01/14 03:28:47;;;;;;;37.43;11.90;;;3.20;99.90;;;;;;5074772;28;20397;-57
2022/01/14 03:31:14;;;;;;;35.53;12.67;;;3.10;99.90;;;;;;5059474;28;20675;-58
2022/01/14 03:33:41;;;;;;;34.10;12.67;;;3.30;99.90;;;;;;5058806;28;20229;-55
2022/01/14 03:36:08;;;;;;;29.80;12.43;;;3.40;99.90;;;;;;5058810;28;20624;-57
2022/01/14 03:38:36;;;;;;;31.47;11.80;;;3.30;99.90;;;;;;5058482;28;20296;-58
2022/01/14 03:41:04;;;;;;;32.50;10.40;;;3.20;99.90;;;;;;5060988;28;20274;-58
2022/01/14 03:43:32;;;;;;;39.70;12.33;;;3.20;99.90;;;;;;5058633;28;20723;-60
2022/01/14 03:45:59;;;;;;;31.70;10.83;;;3.20;99.90;;;;;;5056525;28;20700;-57
2022/01/14 03:48:26;;;;;;;32.27;11.87;;;3.40;99.90;;;;;;5058388;28;20318;-57
2022/01/14 03:50:53;;;;;;;35.43;10.90;;;3.30;99.90;;;;;;5058333;28;20220;-59
2022/01/14 03:53:20;;;;;;;28.87;11.30;;;3.30;99.90;;;;;;5057681;28;20707;-59
2022/01/14 03:55:49;;;;;;;27.53;11.13;;;3.10;99.90;;;;;;5058566;28;20313;-59
2022/01/14 03:58:36;;;;;;;31.10;10.30;;;3.10;99.90;;;;;;5059361;28;20570;-58
2022/01/14 04:01:03;;;;;;;22.80;10.80;;;3.20;99.90;;;;;;5063328;28;20633;-59
2022/01/14 04:03:30;;;;;;;22.10;10.80;;;3.30;99.90;;;;;;5059446;28;20233;-58
2022/01/14 04:05:57;;;;;;;20.77;10.13;;;3.40;99.90;;;;;;5059850;28;20387;-61
2022/01/14 04:08:25;;;;;;;27.97;11.10;;;3.40;99.90;;;;;;5057166;28;20209;-58
2022/01/14 04:10:53;;;;;;;21.90;11.40;;;3.20;99.90;;;;;;5060119;28;20282;-59
2022/01/14 04:13:36;;;;;;;24.23;11.57;;;3.30;99.90;;;;;;5060354;28;20230;-58
2022/01/14 04:16:03;;;;;;;23.27;11.03;;;3.20;99.90;;;;;;5058787;28;20301;-58
2022/01/14 04:18:30;;;;;;;33.13;11.77;;;3.30;99.90;;;;;;5059188;28;20234;-57
2022/01/14 04:20:57;;;;;;;29.43;12.10;;;3.10;99.90;;;;;;5060051;28;20245;-59
2022/01/14 04:23:24;;;;;;;27.93;10.70;;;3.20;99.90;;;;;;5060598;28;20245;-59
2022/01/14 04:25:53;;;;;;;24.20;9.97;;;3.30;99.90;;;;;;5060455;28;20227;-58
2022/01/14 04:28:22;;;;;;;20.63;9.87;;;3.20;99.90;;;;;;5059545;28;20229;-59
2022/01/14 04:30:54;;;;;;;19.40;10.33;;;3.10;99.90;;;;;;5060675;28;20267;-59
2022/01/14 04:33:26;;;;;;;23.43;11.13;;;3.10;99.90;;;;;;5060093;28;20299;-59
2022/01/14 04:35:57;;;;;;;24.67;9.53;;;3.20;99.90;;;;;;5059484;28;20227;-58
2022/01/14 04:38:25;;;;;;;21.10;10.83;;;3.10;99.90;;;;;;5058426;28;20317;-57
2022/01/14 04:40:52;;;;;;;23.77;11.30;;;3.20;99.90;;;;;;5059136;28;20244;-57
2022/01/14 04:43:19;;;;;;;22.63;10.87;;;3.20;99.90;;;;;;5058969;28;20718;-57
2022/01/14 04:46:36;;;;;;;27.80;11.83;;;3.20;99.90;;;;;;5059703;28;20211;-58
2022/01/14 04:48:41;;;;;;;26.67;10.27;;;3.00;99.90;;;;;;5054931;28;20222;-59
2022/01/14 04:51:09;;;;;;;23.30;9.93;;;2.90;99.90;;;;;;5058305;28;20281;-58
2022/01/14 04:53:37;;;;;;;20.43;9.87;;;3.00;99.90;;;;;;5056312;28;20302;-58
2022/01/14 04:56:04;;;;;;;19.33;10.43;;;3.00;99.90;;;;;;5057394;28;20600;-57
2022/01/14 04:58:31;;;;;;;30.10;10.37;;;2.90;99.90;;;;;;5059429;28;20701;-58
2022/01/14 05:00:58;;;;;;;19.73;10.07;;;2.90;99.90;;;;;;5060588;28;20305;-57
2022/01/14 05:03:25;;;;;;;22.90;10.30;;;2.90;99.90;;;;;;5062303;28;20213;-59
2022/01/14 05:05:56;;;;;;;33.63;11.30;;;3.00;99.90;;;;;;5061707;28;20393;-59
2022/01/14 05:08:41;;;;;;;26.07;9.83;;;3.00;99.90;;;;;;5061898;28;20693;-58
2022/01/14 05:13:44;;;;;;;32.00;10.60;;;2.90;99.90;;;;;;5064651;28;20206;-58
2022/01/14 05:16:10;;;;;;;22.87;9.90;;;2.80;99.90;;;;;;5063382;28;20256;-60
2022/01/14 05:18:38;;;;;;;26.17;9.70;;;2.80;99.90;;;;;;5064137;28;20214;-58
2022/01/14 05:21:05;;;;;;;24.43;9.50;;;2.80;99.90;;;;;;5062224;28;20291;-59
2022/01/14 05:23:33;;;;;;;24.77;11.20;;;2.80;99.90;;;;;;5077509;28;20207;-59
2022/01/14 05:25:59;;;;;;;25.50;10.07;;;2.80;99.90;;;;;;5063350;28;20920;-59
2022/01/14 05:28:26;;;;;;;26.43;9.97;;;2.80;99.90;;;;;;5064524;28;20378;-59
2022/01/14 05:30:53;;;;;;;20.43;8.73;;;2.70;99.90;;;;;;5065170;28;20293;-58
2022/01/14 05:33:20;;;;;;;26.37;9.77;;;2.70;99.90;;;;;;5063890;28;20221;-59
2022/01/14 05:35:47;;;;;;;19.60;8.53;;;2.60;99.90;;;;;;5060885;28;20218;-61
2022/01/14 05:38:13;;;;;;;20.43;10.10;;;2.70;99.90;;;;;;5064032;28;20203;-58
2022/01/14 05:40:40;;;;;;;20.83;8.80;;;2.70;99.90;;;;;;5062548;28;20245;-59
2022/01/14 05:43:07;;;;;;;21.83;10.03;;;2.70;99.90;;;;;;5063864;28;22014;-58
2022/01/14 05:45:34;;;;;;;19.80;9.07;;;2.70;99.90;;;;;;5063520;28;20202;-58
2022/01/14 05:48:01;;;;;;;22.87;9.83;;;2.70;99.90;;;;;;5063454;28;20222;-59
2022/01/14 05:50:27;;;;;;;22.17;9.97;;;2.70;99.90;;;;;;5063993;28;20656;-59
2022/01/14 05:52:54;;;;;;;27.57;10.33;;;2.70;99.90;;;;;;5064546;28;20687;-57
2022/01/14 05:55:21;;;;;;;22.40;10.60;;;2.80;99.90;;;;;;5063597;28;20389;-58
2022/01/14 05:57:49;;;;;;;25.27;9.73;;;2.70;99.90;;;;;;5062563;28;20558;-60
2022/01/14 06:00:18;;;;;;;28.13;10.77;;;2.70;99.90;;;;;;5061943;28;20292;-57
2022/01/14 06:02:47;;;;;;;23.40;10.43;;;2.70;99.90;;;;;;5064688;28;20199;-59
2022/01/14 06:05:15;;;;;;;30.70;9.97;;;3.00;99.90;;;;;;5063140;28;20198;-58
2022/01/14 06:07:42;;;;;;;33.93;10.53;;;3.00;99.90;;;;;;5063901;28;20586;-57
2022/01/14 06:10:09;;;;;;;24.33;10.03;;;2.80;99.90;;;;;;5059700;28;20246;-59
2022/01/14 06:12:37;;;;;;;22.37;10.67;;;2.80;99.90;;;;;;5061614;28;20606;-60
2022/01/14 06:15:05;;;;;;;27.50;10.73;;;2.80;99.90;;;;;;5060903;28;20628;-59
2022/01/14 06:17:32;;;;;;;23.60;10.47;;;2.90;99.90;;;;;;5060484;28;20242;-61
2022/01/14 06:19:59;;;;;;;21.80;10.83;;;2.90;99.90;;;;;;5059017;28;20967;-57
2022/01/14 06:22:26;;;;;;;25.33;10.53;;;2.90;99.90;;;;;;5059932;28;20639;-58
2022/01/14 06:24:52;;;;;;;20.20;10.03;;;2.90;99.90;;;;;;5059378;28;20571;-59
2022/01/14 06:27:19;;;;;;;28.13;9.80;;;3.00;99.90;;;;;;5058725;28;20696;-58
2022/01/14 06:29:46;;;;;;;22.10;9.13;;;2.90;99.90;;;;;;5061755;28;20261;-59
2022/01/14 06:32:13;;;;;;;23.30;10.07;;;2.90;99.90;;;;;;5076909;28;20203;-59
2022/01/14 06:34:40;;;;;;;25.30;9.77;;;3.00;99.90;;;;;;5060306;28;20199;-58
2022/01/14 06:37:07;;;;;;;26.10;10.10;;;3.20;99.90;;;;;;5061872;28;20226;-58
2022/01/14 06:39:33;;;;;;;22.33;9.67;;;3.00;99.90;;;;;;5057916;28;20214;-59
2022/01/14 06:42:01;;;;;;;23.03;10.40;;;3.00;99.90;;;;;;5058887;28;20238;-59
2022/01/14 06:44:28;;;;;;;22.87;9.50;;;3.00;99.90;;;;;;5060177;28;20211;-58
2022/01/14 06:46:55;;;;;;;24.70;9.57;;;3.00;99.90;;;;;;5061434;28;20203;-59
2022/01/14 06:49:22;;;;;;;21.43;9.27;;;3.00;99.90;;;;;;5059953;28;20708;-58
2022/01/14 06:51:48;;;;;;;19.43;9.47;;;3.00;99.90;;;;;;5061757;28;20204;-59
2022/01/14 06:54:15;;;;;;;22.20;10.40;;;3.00;99.90;;;;;;5059717;28;20280;-58
2022/01/14 06:56:43;;;;;;;29.20;9.60;;;2.90;99.90;;;;;;5059328;28;20202;-59
2022/01/14 06:59:12;;;;;;;24.27;8.53;;;3.00;99.90;;;;;;5061375;28;20203;-58
2022/01/14 07:01:39;;;;;;;15.43;8.13;;;2.90;99.90;;;;;;5057789;28;20683;-59
2022/01/14 07:04:06;;;;;;;16.53;9.20;;;3.00;99.90;;;;;;5059525;28;20217;-62
2022/01/14 07:06:33;;;;;;;27.13;9.13;;;3.10;99.90;;;;;;5061185;28;20206;-58
2022/01/14 07:09:00;;;;;;;29.80;9.37;;;3.00;99.90;;;;;;5059525;28;20230;-59
2022/01/14 07:11:31;;;;;;;30.97;8.90;;;3.00;99.90;;;;;;5057678;28;20287;-58
2022/01/14 07:13:57;;;;;;;33.17;9.83;;;2.90;99.90;;;;;;5058606;28;20230;-59
2022/01/14 07:16:24;;;;;;;25.87;9.47;;;2.80;99.90;;;;;;5058226;28;20221;-59
2022/01/14 07:18:51;;;;;;;38.83;10.73;;;2.80;99.90;;;;;;5059424;28;20615;-59
2022/01/14 07:21:18;;;;;;;28.37;9.30;;;2.80;99.90;;;;;;5058888;28;20291;-59
2022/01/14 07:23:45;;;;;;;17.57;9.27;;;2.90;99.90;;;;;;5060363;28;20284;-59
2022/01/14 07:26:12;;;;;;;22.33;9.60;;;3.00;99.90;;;;;;5059941;28;20244;-58
2022/01/14 07:28:39;;;;;;;28.40;9.43;;;3.20;99.90;;;;;;5059666;28;20281;-58
2022/01/14 07:31:12;;;;;;;31.60;9.37;;;3.00;99.90;;;;;;5059761;28;20283;-59
2022/01/14 07:33:39;;;;;;;30.07;9.37;;;2.90;99.90;;;;;;5058828;28;20346;-58
2022/01/14 07:36:06;;;;;;;22.33;9.03;;;3.00;99.90;;;;;;5057725;28;20227;-58
2022/01/14 07:38:33;;;;;;;30.03;9.53;;;3.00;99.90;;;;;;5057193;28;20337;-59
2022/01/14 07:41:00;;;;;;;23.13;8.73;;;2.90;99.90;;;;;;5055019;28;20215;-59
2022/01/14 07:43:27;;;;;;;32.80;9.87;;;3.00;99.90;;;;;;5055234;28;20235;-60
2022/01/14 07:45:54;;;;;;;24.63;8.47;;;2.90;99.90;;;;;;5057809;28;20274;-58
2022/01/14 07:48:21;;;;;;;23.40;8.77;;;2.90;99.90;;;;;;5057554;28;20241;-56
2022/01/14 07:50:48;;;;;;;32.27;9.13;;;2.70;99.90;;;;;;5058005;28;20291;-59
2022/01/14 07:53:15;;;;;;;28.93;8.83;;;2.70;99.90;;;;;;5055384;28;20280;-59
2022/01/14 07:55:42;;;;;;;38.83;8.50;;;2.70;99.90;;;;;;5073304;28;20221;-59
2022/01/14 07:58:09;;;;;;;26.20;9.20;;;2.60;99.90;;;;;;5058529;28;20663;-59
2022/01/14 08:00:37;;;;;;;23.53;9.43;;;2.60;99.90;;;;;;5057037;28;20403;-60
2022/01/14 08:03:05;;;;;;;31.77;8.97;;;2.70;99.90;;;;;;5054453;28;20209;-58
2022/01/14 08:05:32;;;;;;;28.57;9.17;;;2.70;99.90;;;;;;5053931;28;20225;-60
2022/01/14 08:08:04;;;;;;;41.00;9.63;;;2.50;99.90;;;;;;5055908;28;20230;-58
2022/01/14 08:10:32;;;;;;;25.07;8.47;;;2.40;99.90;;;;;;5054032;28;20264;-58
2022/01/14 08:12:59;;;;;;;27.47;9.07;;;2.60;99.90;;;;;;5056095;28;20203;-58
2022/01/14 08:15:31;;;;;;;23.60;9.13;;;2.50;99.90;;;;;;5054409;28;20235;-55
2022/01/14 08:18:00;;;;;;;31.27;9.43;;;2.60;99.90;;;;;;5051736;28;20638;-59
2022/01/14 08:20:27;;;;;;;26.37;9.53;;;2.50;99.90;;;;;;5054160;28;20692;-58
2022/01/14 08:22:54;;;;;;;28.77;9.10;;;2.40;99.90;;;;;;5054522;28;20316;-59
2022/01/14 08:25:20;;;;;;;25.33;8.03;;;2.40;99.90;;;;;;5052124;28;20202;-59
2022/01/14 08:27:47;;;;;;;35.20;9.70;;;2.40;99.90;;;;;;5055924;28;21770;-57
2022/01/14 08:30:14;;;;;;;31.63;10.17;;;2.40;99.90;;;;;;5054900;28;20600;-60
2022/01/14 08:32:41;;;;;;;32.47;9.27;;;2.70;99.90;;;;;;5057241;28;20203;-59
2022/01/14 08:35:09;;;;;;;22.97;8.80;;;2.60;99.90;;;;;;5053610;28;20212;-56
2022/01/14 08:37:38;;;;;;;33.27;9.57;;;2.50;99.90;;;;;;5058312;28;20245;-58
2022/01/14 08:40:07;;;;;;;33.90;9.53;;;2.70;99.90;;;;;;5053941;28;20210;-57
2022/01/14 08:42:34;;;;;;;39.20;9.93;;;2.70;99.90;;;;;;5055393;28;20748;-58
2022/01/14 08:45:02;;;;;;;22.03;9.70;;;2.60;99.90;;;;;;5055069;28;20646;-58
2022/01/14 08:47:30;;;;;;;18.57;9.77;;;2.80;99.90;;;;;;5054119;28;20206;-58
2022/01/14 08:49:57;;;;;;;31.20;9.13;;;2.90;99.90;;;;;;5052390;28;20222;-57
2022/01/14 08:52:24;;;;;;;26.00;9.63;;;2.70;99.90;;;;;;5049835;28;20203;-58
2022/01/14 08:54:51;;;;;;;31.93;10.07;;;2.80;99.90;;;;;;5049734;28;20251;-58
2022/01/14 08:57:23;;;;;;;26.20;9.53;;;2.90;99.90;;;;;;5052164;28;20200;-57
2022/01/14 08:59:50;;;;;;;32.33;10.23;;;2.70;99.90;;;;;;5051990;28;20242;-57
2022/01/14 09:02:16;;;;;;;27.80;9.90;;;2.90;99.90;;;;;;5051746;28;20263;-60
2022/01/14 09:04:43;;;;;;;19.67;9.80;;;2.70;99.90;;;;;;5051487;28;20209;-59
2022/01/14 09:07:10;;;;;;;35.87;10.57;;;2.60;99.90;;;;;;5058311;28;21225;-59
2022/01/14 09:09:37;;;;;;;25.93;10.00;;;2.70;99.90;;;;;;5052797;28;20288;-57
2022/01/14 09:12:05;;;;;;;30.80;9.90;;;2.60;99.90;;;;;;5053322;28;20543;-57
2022/01/14 09:14:32;;;;;;;19.93;9.90;;;2.80;99.90;;;;;;5053708;28;20338;-61
2022/01/14 09:16:59;;;;;;;23.73;10.60;;;3.10;99.90;;;;;;5053517;28;20237;-58
2022/01/14 09:19:26;;;;;;;39.20;9.20;;;3.00;99.90;;;;;;5054997;28;20202;-59
2022/01/14 09:21:53;;;;;;;24.80;10.17;;;2.80;99.90;;;;;;5052865;28;20206;-58
2022/01/14 09:24:41;;;;;;;20.70;10.37;;;2.80;99.90;;;;;;5052628;28;20284;-58
2022/01/14 09:27:08;;;;;;;25.13;10.27;;;3.00;99.90;;;;;;5054206;28;21953;-57
2022/01/14 09:29:35;;;;;;;21.60;10.10;;;3.10;99.90;;;;;;5054773;28;20667;-59
2022/01/14 09:32:03;;;;;;;29.30;10.87;;;3.20;99.90;;;;;;5054380;28;20201;-57
2022/01/14 09:34:30;;;;;;;32.97;10.60;;;3.30;99.90;;;;;;5054321;28;20300;-56
2022/01/14 09:36:57;;;;;;;24.70;11.83;;;3.00;99.90;;;;;;5056147;28;20263;-56
2022/01/14 09:39:23;;;;;;;20.07;10.50;;;3.10;99.90;;;;;;5055082;28;20202;-57
2022/01/14 09:41:50;;;;;;;21.70;10.70;;;3.30;99.90;;;;;;5055343;28;20592;-56
2022/01/14 09:44:18;;;;;;;25.90;10.60;;;3.40;99.90;;;;;;5053568;28;20246;-55
2022/01/14 09:46:50;;;;;;;23.37;11.50;;;3.60;99.90;;;;;;5053955;28;20207;-55
2022/01/14 09:49:17;;;;;;;27.27;10.67;;;3.40;99.90;;;;;;5061390;28;20227;-57
2022/01/14 09:51:44;;;;;;;22.87;11.37;;;3.40;99.90;;;;;;5059733;28;20199;-57
2022/01/14 09:54:11;;;;;;;25.33;10.87;;;3.50;99.90;;;;;;5056886;28;20234;-57
2022/01/14 09:56:39;;;;;;;18.13;10.27;;;3.40;99.90;;;;;;5056318;28;20199;-58
2022/01/14 09:59:06;;;;;;;20.87;10.37;;;3.60;99.90;;;;;;5058682;28;20206;-58
2022/01/14 10:01:44;;;;;;;21.40;10.97;;;3.50;99.90;;;;;;5060793;28;20708;-57
2022/01/14 10:04:19;;;;;;;23.47;10.73;;;3.60;99.90;;;;;;5056849;28;20214;-56
2022/01/14 10:06:47;;;;;;;24.13;10.97;;;3.40;99.90;;;;;;5057485;28;20230;-58
2022/01/14 10:09:19;;;;;;;21.83;10.53;;;3.50;99.90;;;;;;5058262;28;20235;-60
2022/01/14 10:12:05;;;;;;;26.97;11.73;;;3.30;99.90;;;;;;5056102;28;20203;-58
2022/01/14 10:14:34;;;;;;;21.67;11.43;;;3.20;99.90;;;;;;5054807;28;20244;-58
2022/01/14 10:17:04;;;;;;;24.13;11.00;;;3.40;99.90;;;;;;5053707;28;20199;-59
2022/01/14 10:19:41;;;;;;;28.33;10.70;;;3.40;99.90;;;;;;5055776;28;20203;-56
2022/01/14 10:22:22;;;;;;;21.20;10.83;;;3.30;99.90;;;;;;5050711;28;20308;-58
2022/01/14 10:25:19;;;;;;;25.90;11.37;;;3.40;99.90;;;;;;5050803;28;20608;-56
2022/01/14 10:27:50;;;;;;;20.13;10.63;;;3.40;99.90;;;;;;5054357;28;20235;-55
2022/01/14 10:30:32;;;;;;;30.40;11.33;;;3.40;99.90;;;;;;5053451;28;20579;-58
2022/01/14 10:33:02;;;;;;;27.70;12.03;;;3.50;99.90;;;;;;5055941;28;20206;-58
2022/01/14 10:35:34;;;;;;;24.13;11.90;;;3.50;99.90;;;;;;5056560;28;20873;-58
2022/01/14 10:38:05;;;;;;;23.90;12.10;;;3.50;99.90;;;;;;5053892;28;20771;-57
2022/01/14 10:40:35;;;;;;;26.83;12.97;;;3.60;99.90;;;;;;5053998;28;21071;-59
2022/01/14 10:43:07;;;;;;;24.70;12.07;;;3.60;99.90;;;;;;5057742;28;20747;-61
2022/01/14 10:45:55;;;;;;;19.90;11.33;;;3.50;99.90;;;;;;5068464;28;20206;-57
2022/01/14 10:48:34;;;;;;;22.00;12.27;;;3.60;99.90;;;;;;5056157;28;20241;-57
2022/01/14 10:51:04;;;;;;;22.17;12.63;;;3.70;99.90;;;;;;5057392;28;20559;-56
2022/01/14 10:53:36;;;;;;;25.73;12.73;;;3.80;99.90;;;;;;5057690;28;20720;-55
2022/01/14 10:56:04;;;;;;;28.43;12.67;;;3.80;99.90;;;;;;5056222;28;20585;-59
2022/01/14 10:58:32;;;;;;;26.47;13.47;;;4.00;99.90;;;;;;5054008;28;20253;-57
2022/01/14 11:01:08;;;;;;;24.80;11.77;;;3.80;99.90;;;;;;5068969;28;20198;-57
2022/01/14 11:03:38;;;;;;;25.63;12.70;;;3.80;99.90;;;;;;5057951;28;20227;-59
2022/01/14 11:06:26;;;;;;;20.77;11.87;;;3.90;99.90;;;;;;5054143;28;20539;-57
2022/01/14 11:09:05;;;;;;;22.50;11.87;;;3.90;99.90;;;;;;5056695;28;20253;-58
2022/01/14 11:11:37;;;;;;;23.07;11.90;;;3.90;99.90;;;;;;5055885;28;20308;-56
2022/01/14 11:14:06;;;;;;;27.67;13.60;;;3.90;99.90;;;;;;5056101;28;20203;-58
2022/01/14 11:16:33;;;;;;;20.13;10.97;;;4.00;99.90;;;;;;5056000;28;20229;-58
2022/01/14 11:19:02;;;;;;;28.70;13.00;;;4.00;99.90;;;;;;5056487;28;20698;-58
2022/01/14 11:24:22;;;;;;;22.77;12.67;;;4.20;99.90;;;;;;5057824;28;20271;-56
2022/01/14 11:26:53;;;;;;;25.53;12.33;;;4.10;99.90;;;;;;5053377;28;20204;-58
2022/01/14 11:29:22;;;;;;;22.13;12.60;;;4.10;99.90;;;;;;5054970;28;20664;-58
2022/01/14 11:32:03;;;;;;;21.03;12.20;;;4.20;99.90;;;;;;5057805;28;20315;-59
2022/01/14 11:34:42;;;;;;;23.43;13.13;;;4.40;99.90;;;;;;5054669;28;20302;-57
2022/01/14 11:37:11;;;;;;;22.83;12.40;;;4.40;99.90;;;;;;5058202;28;20210;-56
2022/01/14 11:39:39;;;;;;;28.60;13.40;;;4.40;99.90;;;;;;5046327;28;20700;-58
2022/01/14 11:42:09;;;;;;;29.67;14.37;;;4.30;99.90;;;;;;5049652;28;20298;-56
2022/01/14 11:44:43;;;;;;;27.73;13.33;;;4.30;99.90;;;;;;5049210;28;20256;-58
2022/01/14 11:47:25;;;;;;;25.63;13.57;;;4.20;99.90;;;;;;5058305;28;20819;-59
2022/01/14 11:49:57;;;;;;;24.40;13.47;;;4.30;99.90;;;;;;5053660;28;20228;-57
2022/01/14 11:52:42;;;;;;;25.20;13.03;;;4.40;99.90;;;;;;5056189;28;20237;-61
2022/01/14 11:55:15;;;;;;;26.97;13.87;;;4.40;99.90;;;;;;5054733;28;20681;-55
2022/01/14 11:57:45;;;;;;;24.77;14.43;;;4.50;99.90;;;;;;5054000;28;21324;-58
2022/01/14 12:00:33;;;;;;;28.33;14.60;;;4.50;99.90;;;;;;5056100;28;20333;-58
2022/01/14 12:03:26;;;;;;;22.47;13.50;;;4.60;99.90;;;;;;5057216;28;20571;-58
2022/01/14 12:05:56;;;;;;;24.87;13.33;;;4.60;99.90;;;;;;5053538;28;20260;-57
2022/01/14 12:08:29;;;;;;;26.57;14.03;;;4.80;99.90;;;;;;5052097;28;20893;-57
2022/01/14 12:11:06;;;;;;;22.37;13.83;;;4.80;99.90;;;;;;5051609;28;20220;-59
2022/01/14 12:13:53;;;;;;;22.70;13.50;;;4.60;99.90;;;;;;5052204;28;20199;-58
2022/01/14 12:17:12;;;;;;;22.27;14.37;;;4.60;99.90;;;;;;5052045;28;20641;-57
2022/01/14 12:19:16;;;;;;;28.37;15.23;;;4.80;99.90;;;;;;5043336;28;20287;-57
2022/01/14 12:21:50;;;;;;;25.17;14.10;;;4.90;99.90;;;;;;5053934;28;20326;-58
2022/01/14 12:24:27;;;;;;;26.97;14.60;;;4.90;99.90;;;;;;5053224;28;20229;-58
2022/01/14 12:27:12;;;;;;;28.53;15.73;;;5.00;99.90;;;;;;5056372;28;20196;-58
2022/01/14 12:29:50;;;;;;;26.30;15.13;;;5.00;99.90;;;;;;5054238;28;20224;-58
2022/01/14 12:32:39;;;;;;;26.60;15.50;;;4.90;99.90;;;;;;5055826;28;20217;-57
2022/01/14 12:35:18;;;;;;;31.50;14.43;;;4.90;99.90;;;;;;5054290;28;20737;-56
2022/01/14 12:37:55;;;;;;;27.53;15.50;;;4.70;99.90;;;;;;5055705;28;20234;-55
2022/01/14 12:40:29;;;;;;;27.07;14.77;;;4.90;99.90;;;;;;5054180;28;20612;-58
2022/01/14 12:43:00;;;;;;;26.87;15.60;;;4.80;99.90;;;;;;5053372;28;20847;-59
2022/01/14 12:45:34;;;;;;;25.17;15.57;;;5.00;99.90;;;;;;5052164;28;20241;-57
2022/01/14 12:48:36;;;;;;;25.97;15.73;;;5.00;99.90;;;;;;5054739;28;20678;-56
2022/01/14 12:51:05;;;;;;;24.40;14.80;;;5.10;99.90;;;;;;5054679;28;20657;-59
2022/01/14 12:53:33;;;;;;;29.37;14.80;;;5.40;99.90;;;;;;5052001;28;21277;-57
2022/01/14 12:56:02;;;;;;;22.80;14.30;;;5.50;99.90;;;;;;5052105;28;20208;-58
2022/01/14 12:58:49;;;;;;;27.80;15.30;;;5.60;99.90;;;;;;5052476;28;20232;-57
2022/01/14 13:01:15;;;;;;;25.33;14.83;;;5.70;99.90;;;;;;5052511;28;20245;-57
2022/01/14 13:03:43;;;;;;;25.80;15.10;;;5.50;99.90;;;;;;5053999;28;20214;-58
2022/01/14 13:06:10;;;;;;;29.00;15.83;;;5.60;99.90;;;;;;5054299;28;20640;-59
2022/01/14 13:08:37;;;;;;;25.37;14.67;;;5.70;99.90;;;;;;5054077;28;20321;-58
2022/01/14 13:11:07;;;;;;;24.77;14.93;;;5.60;99.90;;;;;;5053214;28;20262;-58
2022/01/14 13:13:33;;;;;;;23.47;14.87;;;5.60;99.90;;;;;;5057007;28;21134;-57
2022/01/14 13:16:06;;;;;;;24.83;14.40;;;5.60;99.90;;;;;;5055392;28;20257;-56
2022/01/14 13:18:54;;;;;;;24.13;14.40;;;5.50;99.90;;;;;;5057567;28;20191;-56
2022/01/14 13:21:21;;;;;;;24.07;15.40;;;5.50;99.90;;;;;;5051749;28;20203;-57